sensor_id;sensor_type;location;lat;lon;timestamp;temperature;humidity
19732;DHT22;10017;54.350;18.532;2023-04-15T00:01:10;9.00;99.90
19732;DHT22;10017;54.350;18.532;2023-04-15T00:03:42;9.00;99.90
19732;DHT22;10017;54.350;18.532;2023-04-15T00:06:14;9.00;99.90
19732;DHT22;10017;54.350;18.532;2023-04-15T00:08:47;9.10;99.90
19732;DHT22;10017;54.350;18.532;2023-04-15T00:11:19;9.10;99.90
19732;DHT22;10017;54.350;18.532;2023-04-15T00:13:51;9.10;99.90
19732;DHT22;10017;54.350;18.532;2023-04-15T00:16:23;9.10;99.90
19732;DHT22;10017;54.350;18.532;2023-04-15T00:18:55;9.10;99.90
19732;DHT22;10017;54.350;18.532;2023-04-15T00:21:27;9.10;99.90
19732;DHT22;10017;54.350;18.532;2023-04-15T00:24:02;9.10;99.90
19732;DHT22;10017;54.350;18.532;2023-04-15T00:26:34;9.10;99.90
19732;DHT22;10017;54.350;18.532;2023-04-15T00:29:06;9.10;99.90
19732;DHT22;10017;54.350;18.532;2023-04-15T00:31:38;9.10;99.90
19732;DHT22;10017;54.350;18.532;2023-04-15T00:34:10;9.00;99.90
19732;DHT22;10017;54.350;18.532;2023-04-15T00:36:42;9.10;99.90
19732;DHT22;10017;54.350;18.532;2023-04-15T00:39:14;9.10;99.90
19732;DHT22;10017;54.350;18.532;2023-04-15T00:41:46;9.10;99.90
19732;DHT22;10017;54.350;18.532;2023-04-15T00:44:18;9.00;99.90
19732;DHT22;10017;54.350;18.532;2023-04-15T00:46:50;9.00;99.90
19732;DHT22;10017;54.350;18.532;2023-04-15T00:49:22;9.10;99.90
19732;DHT22;10017;54.350;18.532;2023-04-15T00:51:54;9.10;99.90
19732;DHT22;10017;54.350;18.532;2023-04-15T00:54:26;9.10;99.90
19732;DHT22;10017;54.350;18.532;2023-04-15T00:56:58;9.00;99.90
19732;DHT22;10017;54.350;18.532;2023-04-15T00:59:32;9.00;99.90
19732;DHT22;10017;54.350;18.532;2023-04-15T01:02:04;8.90;99.90
19732;DHT22;10017;54.350;18.532;2023-04-15T01:04:36;8.90;99.90
19732;DHT22;10017;54.350;18.532;2023-04-15T01:07:08;8.90;99.90
19732;DHT22;10017;54.350;18.532;2023-04-15T01:09:40;8.90;99.90
19732;DHT22;10017;54.350;18.532;2023-04-15T01:12:13;8.90;99.90
19732;DHT22;10017;54.350;18.532;2023-04-15T01:14:46;8.90;99.90
19732;DHT22;10017;54.350;18.532;2023-04-15T01:17:20;8.90;99.90
19732;DHT22;10017;54.350;18.532;2023-04-15T01:19:52;8.90;99.90
19732;DHT22;10017;54.350;18.532;2023-04-15T01:22:26;8.90;99.90
19732;DHT22;10017;54.350;18.532;2023-04-15T01:27:39;8.80;99.90
19732;DHT22;10017;54.350;18.532;2023-04-15T01:30:13;8.80;99.90
19732;DHT22;10017;54.350;18.532;2023-04-15T01:32:46;8.80;99.90
19732;DHT22;10017;54.350;18.532;2023-04-15T01:35:18;8.70;99.90
19732;DHT22;10017;54.350;18.532;2023-04-15T01:37:50;8.80;99.90
19732;DHT22;10017;54.350;18.532;2023-04-15T01:40:22;8.80;99.90
19732;DHT22;10017;54.350;18.532;2023-04-15T01:42:53;8.70;99.90
19732;DHT22;10017;54.350;18.532;2023-04-15T01:45:25;8.80;99.90
19732;DHT22;10017;54.350;18.532;2023-04-15T01:47:57;8.80;99.90
19732;DHT22;10017;54.350;18.532;2023-04-15T01:50:29;8.80;99.90
19732;DHT22;10017;54.350;18.532;2023-04-15T01:53:02;8.80;99.90
19732;DHT22;10017;54.350;18.532;2023-04-15T01:55:34;8.80;99.90
19732;DHT22;10017;54.350;18.532;2023-04-15T01:58:06;8.80;99.90
19732;DHT22;10017;54.350;18.532;2023-04-15T02:00:38;8.80;99.90
19732;DHT22;10017;54.350;18.532;2023-04-15T02:03:09;8.80;99.90
19732;DHT22;10017;54.350;18.532;2023-04-15T02:05:42;8.80;99.90
19732;DHT22;10017;54.350;18.532;2023-04-15T02:08:14;8.80;99.90
19732;DHT22;10017;54.350;18.532;2023-04-15T02:10:46;8.80;99.90
19732;DHT22;10017;54.350;18.532;2023-04-15T02:13:18;8.80;99.90
19732;DHT22;10017;54.350;18.532;2023-04-15T02:15:50;8.80;99.90
19732;DHT22;10017;54.350;18.532;2023-04-15T02:18:23;8.80;99.90
19732;DHT22;10017;54.350;18.532;2023-04-15T02:20:55;8.80;99.90
19732;DHT22;10017;54.350;18.532;2023-04-15T02:23:29;8.80;99.90
19732;DHT22;10017;54.350;18.532;2023-04-15T02:26:01;8.80;99.90
19732;DHT22;10017;54.350;18.532;2023-04-15T02:28:33;8.80;99.90
19732;DHT22;10017;54.350;18.532;2023-04-15T02:31:05;8.80;99.90
19732;DHT22;10017;54.350;18.532;2023-04-15T02:33:37;8.80;99.90
19732;DHT22;10017;54.350;18.532;2023-04-15T02:36:09;8.80;99.90
19732;DHT22;10017;54.350;18.532;2023-04-15T02:38:42;8.80;99.90
19732;DHT22;10017;54.350;18.532;2023-04-15T02:41:14;8.80;99.90
19732;DHT22;10017;54.350;18.532;2023-04-15T02:43:46;8.80;99.90
19732;DHT22;10017;54.350;18.532;2023-04-15T02:46:20;8.80;99.90
19732;DHT22;10017;54.350;18.532;2023-04-15T02:48:53;8.80;99.90
19732;DHT22;10017;54.350;18.532;2023-04-15T02:51:25;8.80;99.90
19732;DHT22;10017;54.350;18.532;2023-04-15T02:54:01;8.80;99.90
19732;DHT22;10017;54.350;18.532;2023-04-15T02:56:34;8.80;99.90
19732;DHT22;10017;54.350;18.532;2023-04-15T02:59:06;8.80;99.90
19732;DHT22;10017;54.350;18.532;2023-04-15T03:05:02;8.80;99.90
19732;DHT22;10017;54.350;18.532;2023-04-15T03:07:37;8.80;99.90
19732;DHT22;10017;54.350;18.532;2023-04-15T03:10:09;8.80;99.90
19732;DHT22;10017;54.350;18.532;2023-04-15T03:12:41;8.80;99.90
19732;DHT22;10017;54.350;18.532;2023-04-15T03:15:13;8.80;99.90
19732;DHT22;10017;54.350;18.532;2023-04-15T03:17:45;8.70;99.90
19732;DHT22;10017;54.350;18.532;2023-04-15T03:20:20;8.70;99.90
19732;DHT22;10017;54.350;18.532;2023-04-15T03:22:52;8.70;99.90
19732;DHT22;10017;54.350;18.532;2023-04-15T03:25:24;8.70;99.90
19732;DHT22;10017;54.350;18.532;2023-04-15T03:27:56;8.60;99.90
19732;DHT22;10017;54.350;18.532;2023-04-15T03:30:28;8.60;99.90
19732;DHT22;10017;54.350;18.532;2023-04-15T03:32:59;8.60;99.90
19732;DHT22;10017;54.350;18.532;2023-04-15T03:35:32;8.60;99.90
19732;DHT22;10017;54.350;18.532;2023-04-15T03:38:03;8.60;99.90
19732;DHT22;10017;54.350;18.532;2023-04-15T03:40:35;8.60;99.90
19732;DHT22;10017;54.350;18.532;2023-04-15T03:43:07;8.70;99.90
19732;DHT22;10017;54.350;18.532;2023-04-15T03:45:41;8.60;99.90
19732;DHT22;10017;54.350;18.532;2023-04-15T03:48:13;8.70;99.90
19732;DHT22;10017;54.350;18.532;2023-04-15T03:50:48;8.70;99.90
19732;DHT22;10017;54.350;18.532;2023-04-15T03:53:20;8.70;99.90
19732;DHT22;10017;54.350;18.532;2023-04-15T03:55:54;8.70;99.90
19732;DHT22;10017;54.350;18.532;2023-04-15T03:58:29;8.70;99.90
19732;DHT22;10017;54.350;18.532;2023-04-15T04:01:01;8.70;99.90
19732;DHT22;10017;54.350;18.532;2023-04-15T04:03:33;8.70;99.90
19732;DHT22;10017;54.350;18.532;2023-04-15T04:06:05;8.70;99.90
19732;DHT22;10017;54.350;18.532;2023-04-15T04:08:37;8.70;99.90
19732;DHT22;10017;54.350;18.532;2023-04-15T04:11:09;8.70;99.90
19732;DHT22;10017;54.350;18.532;2023-04-15T04:13:43;8.80;99.90
19732;DHT22;10017;54.350;18.532;2023-04-15T04:16:15;8.70;99.90
19732;DHT22;10017;54.350;18.532;2023-04-15T04:18:47;8.70;99.90
19732;DHT22;10017;54.350;18.532;2023-04-15T04:21:19;8.70;99.90
19732;DHT22;10017;54.350;18.532;2023-04-15T04:23:51;8.70;99.90
19732;DHT22;10017;54.350;18.532;2023-04-15T04:26:23;8.70;99.90
19732;DHT22;10017;54.350;18.532;2023-04-15T04:28:55;8.70;99.90
19732;DHT22;10017;54.350;18.532;2023-04-15T04:31:27;8.70;99.90
19732;DHT22;10017;54.350;18.532;2023-04-15T04:33:59;8.70;99.90
19732;DHT22;10017;54.350;18.532;2023-04-15T04:36:30;8.70;99.90
19732;DHT22;10017;54.350;18.532;2023-04-15T04:39:02;8.60;99.90
19732;DHT22;10017;54.350;18.532;2023-04-15T04:41:34;8.70;99.90
19732;DHT22;10017;54.350;18.532;2023-04-15T04:44:06;8.70;99.90
19732;DHT22;10017;54.350;18.532;2023-04-15T04:46:38;8.70;99.90
19732;DHT22;10017;54.350;18.532;2023-04-15T04:49:10;8.70;99.90
19732;DHT22;10017;54.350;18.532;2023-04-15T04:51:44;8.70;99.90
19732;DHT22;10017;54.350;18.532;2023-04-15T04:54:17;8.70;99.90
19732;DHT22;10017;54.350;18.532;2023-04-15T04:56:51;8.70;99.90
19732;DHT22;10017;54.350;18.532;2023-04-15T04:59:23;8.70;99.90
19732;DHT22;10017;54.350;18.532;2023-04-15T05:01:55;8.70;99.90
19732;DHT22;10017;54.350;18.532;2023-04-15T05:04:27;8.80;99.90
19732;DHT22;10017;54.350;18.532;2023-04-15T05:07:01;8.80;99.90
19732;DHT22;10017;54.350;18.532;2023-04-15T05:09:33;8.80;99.90
19732;DHT22;10017;54.350;18.532;2023-04-15T05:12:07;8.80;99.90
19732;DHT22;10017;54.350;18.532;2023-04-15T05:14:40;8.80;99.90
19732;DHT22;10017;54.350;18.532;2023-04-15T05:17:12;8.90;99.90
19732;DHT22;10017;54.350;18.532;2023-04-15T05:19:44;8.90;99.90
19732;DHT22;10017;54.350;18.532;2023-04-15T05:22:16;8.90;99.90
19732;DHT22;10017;54.350;18.532;2023-04-15T05:24:48;9.00;99.90
19732;DHT22;10017;54.350;18.532;2023-04-15T05:27:19;9.00;99.90
19732;DHT22;10017;54.350;18.532;2023-04-15T05:29:53;9.10;99.90
19732;DHT22;10017;54.350;18.532;2023-04-15T05:32:24;9.20;99.90
19732;DHT22;10017;54.350;18.532;2023-04-15T05:34:59;9.20;99.90
19732;DHT22;10017;54.350;18.532;2023-04-15T05:37:31;9.30;99.90
19732;DHT22;10017;54.350;18.532;2023-04-15T05:40:02;9.30;99.90
19732;DHT22;10017;54.350;18.532;2023-04-15T05:42:35;9.40;99.90
19732;DHT22;10017;54.350;18.532;2023-04-15T05:45:07;9.40;99.90
19732;DHT22;10017;54.350;18.532;2023-04-15T05:47:39;9.60;99.90
19732;DHT22;10017;54.350;18.532;2023-04-15T05:50:11;9.60;99.90
19732;DHT22;10017;54.350;18.532;2023-04-15T05:52:43;9.70;99.90
19732;DHT22;10017;54.350;18.532;2023-04-15T05:55:16;9.70;99.90
19732;DHT22;10017;54.350;18.532;2023-04-15T05:57:48;9.70;99.90
19732;DHT22;10017;54.350;18.532;2023-04-15T06:00:20;9.80;99.90
19732;DHT22;10017;54.350;18.532;2023-04-15T06:02:52;9.80;99.90
19732;DHT22;10017;54.350;18.532;2023-04-15T06:05:24;9.80;99.90
19732;DHT22;10017;54.350;18.532;2023-04-15T06:07:58;9.80;99.90
19732;DHT22;10017;54.350;18.532;2023-04-15T06:10:30;9.90;99.90
19732;DHT22;10017;54.350;18.532;2023-04-15T06:13:07;10.00;99.90
19732;DHT22;10017;54.350;18.532;2023-04-15T06:15:39;10.00;99.90
19732;DHT22;10017;54.350;18.532;2023-04-15T06:18:10;9.90;99.90
19732;DHT22;10017;54.350;18.532;2023-04-15T06:20:42;9.80;99.90
19732;DHT22;10017;54.350;18.532;2023-04-15T06:23:14;9.70;99.90
19732;DHT22;10017;54.350;18.532;2023-04-15T06:25:46;9.70;99.90
19732;DHT22;10017;54.350;18.532;2023-04-15T06:28:18;9.60;99.90
19732;DHT22;10017;54.350;18.532;2023-04-15T06:30:49;9.60;99.90
19732;DHT22;10017;54.350;18.532;2023-04-15T06:33:21;9.50;99.90
19732;DHT22;10017;54.350;18.532;2023-04-15T06:35:53;9.60;99.90
19732;DHT22;10017;54.350;18.532;2023-04-15T06:38:25;9.60;99.90
19732;DHT22;10017;54.350;18.532;2023-04-15T06:40:57;9.70;99.90
19732;DHT22;10017;54.350;18.532;2023-04-15T06:43:29;9.80;99.90
19732;DHT22;10017;54.350;18.532;2023-04-15T06:46:01;9.80;99.90
19732;DHT22;10017;54.350;18.532;2023-04-15T06:48:33;9.80;99.90
19732;DHT22;10017;54.350;18.532;2023-04-15T06:51:04;9.80;99.90
19732;DHT22;10017;54.350;18.532;2023-04-15T06:53:37;9.90;99.90
19732;DHT22;10017;54.350;18.532;2023-04-15T06:56:11;10.00;99.90
19732;DHT22;10017;54.350;18.532;2023-04-15T06:58:43;10.20;99.90
19732;DHT22;10017;54.350;18.532;2023-04-15T07:01:15;10.30;99.90
19732;DHT22;10017;54.350;18.532;2023-04-15T07:03:47;10.40;99.90
19732;DHT22;10017;54.350;18.532;2023-04-15T07:06:19;10.50;99.90
19732;DHT22;10017;54.350;18.532;2023-04-15T07:08:52;10.50;99.90
19732;DHT22;10017;54.350;18.532;2023-04-15T07:11:25;10.50;99.90
19732;DHT22;10017;54.350;18.532;2023-04-15T07:13:57;10.50;99.90
19732;DHT22;10017;54.350;18.532;2023-04-15T07:16:29;10.60;99.90
19732;DHT22;10017;54.350;18.532;2023-04-15T07:19:01;10.60;99.90
19732;DHT22;10017;54.350;18.532;2023-04-15T07:21:34;10.60;99.90
19732;DHT22;10017;54.350;18.532;2023-04-15T07:24:07;10.60;99.90
19732;DHT22;10017;54.350;18.532;2023-04-15T07:26:41;10.60;99.90
19732;DHT22;10017;54.350;18.532;2023-04-15T07:29:12;10.60;99.90
19732;DHT22;10017;54.350;18.532;2023-04-15T07:31:44;10.60;99.90
19732;DHT22;10017;54.350;18.532;2023-04-15T07:34:18;10.60;99.90
19732;DHT22;10017;54.350;18.532;2023-04-15T07:36:50;10.60;99.90
19732;DHT22;10017;54.350;18.532;2023-04-15T07:39:22;10.50;99.90
19732;DHT22;10017;54.350;18.532;2023-04-15T07:41:54;10.50;99.90
19732;DHT22;10017;54.350;18.532;2023-04-15T07:44:26;10.50;99.90
19732;DHT22;10017;54.350;18.532;2023-04-15T07:46:58;10.60;99.90
19732;DHT22;10017;54.350;18.532;2023-04-15T07:49:30;10.60;99.90
19732;DHT22;10017;54.350;18.532;2023-04-15T07:52:02;10.60;99.90
19732;DHT22;10017;54.350;18.532;2023-04-15T07:54:34;10.60;99.90
19732;DHT22;10017;54.350;18.532;2023-04-15T07:57:06;10.60;99.90
19732;DHT22;10017;54.350;18.532;2023-04-15T07:59:41;10.70;99.90
19732;DHT22;10017;54.350;18.532;2023-04-15T08:02:13;10.60;99.90
19732;DHT22;10017;54.350;18.532;2023-04-15T08:04:45;10.60;99.90
19732;DHT22;10017;54.350;18.532;2023-04-15T08:07:17;10.60;99.90
19732;DHT22;10017;54.350;18.532;2023-04-15T08:09:49;10.60;99.90
19732;DHT22;10017;54.350;18.532;2023-04-15T08:12:21;10.70;99.90
19732;DHT22;10017;54.350;18.532;2023-04-15T08:14:56;10.70;99.90
19732;DHT22;10017;54.350;18.532;2023-04-15T08:17:28;10.80;99.90
19732;DHT22;10017;54.350;18.532;2023-04-15T08:20:00;10.90;99.90
19732;DHT22;10017;54.350;18.532;2023-04-15T08:22:32;11.00;99.90
19732;DHT22;10017;54.350;18.532;2023-04-15T08:25:04;10.90;99.90
19732;DHT22;10017;54.350;18.532;2023-04-15T08:27:36;11.00;99.90
19732;DHT22;10017;54.350;18.532;2023-04-15T08:30:10;10.90;99.90
19732;DHT22;10017;54.350;18.532;2023-04-15T08:32:44;10.90;99.90
19732;DHT22;10017;54.350;18.532;2023-04-15T08:35:17;10.90;99.90
19732;DHT22;10017;54.350;18.532;2023-04-15T08:37:49;10.80;99.90
19732;DHT22;10017;54.350;18.532;2023-04-15T08:40:21;10.80;99.90
19732;DHT22;10017;54.350;18.532;2023-04-15T08:42:56;10.80;99.90
19732;DHT22;10017;54.350;18.532;2023-04-15T08:45:29;10.70;99.90
19732;DHT22;10017;54.350;18.532;2023-04-15T08:48:03;10.60;99.90
19732;DHT22;10017;54.350;18.532;2023-04-15T08:50:36;10.60;99.90
19732;DHT22;10017;54.350;18.532;2023-04-15T08:53:08;10.70;99.90
19732;DHT22;10017;54.350;18.532;2023-04-15T08:55:42;10.80;99.90
19732;DHT22;10017;54.350;18.532;2023-04-15T08:58:18;10.90;99.90
19732;DHT22;10017;54.350;18.532;2023-04-15T09:00:50;10.90;99.90
19732;DHT22;10017;54.350;18.532;2023-04-15T09:03:24;10.80;99.90
19732;DHT22;10017;54.350;18.532;2023-04-15T09:05:56;10.70;99.90
19732;DHT22;10017;54.350;18.532;2023-04-15T09:08:28;10.70;99.90
19732;DHT22;10017;54.350;18.532;2023-04-15T09:11:00;10.60;99.90
19732;DHT22;10017;54.350;18.532;2023-04-15T09:13:33;10.60;99.90
19732;DHT22;10017;54.350;18.532;2023-04-15T09:16:05;10.70;99.90
19732;DHT22;10017;54.350;18.532;2023-04-15T09:18:37;10.70;99.90
19732;DHT22;10017;54.350;18.532;2023-04-15T09:21:12;10.70;99.90
19732;DHT22;10017;54.350;18.532;2023-04-15T09:23:59;10.70;99.90
19732;DHT22;10017;54.350;18.532;2023-04-15T09:26:33;10.70;99.90
19732;DHT22;10017;54.350;18.532;2023-04-15T09:29:06;10.70;99.90
19732;DHT22;10017;54.350;18.532;2023-04-15T09:31:40;10.60;99.90
19732;DHT22;10017;54.350;18.532;2023-04-15T09:34:13;10.60;99.90
19732;DHT22;10017;54.350;18.532;2023-04-15T09:39:21;10.60;99.90
19732;DHT22;10017;54.350;18.532;2023-04-15T09:42:03;10.70;99.90
19732;DHT22;10017;54.350;18.532;2023-04-15T09:44:35;10.80;99.90
19732;DHT22;10017;54.350;18.532;2023-04-15T09:47:07;10.80;99.90
19732;DHT22;10017;54.350;18.532;2023-04-15T09:49:43;10.80;99.90
19732;DHT22;10017;54.350;18.532;2023-04-15T09:52:25;10.80;99.90
19732;DHT22;10017;54.350;18.532;2023-04-15T09:54:58;10.90;99.90
19732;DHT22;10017;54.350;18.532;2023-04-15T09:57:34;10.90;99.90
19732;DHT22;10017;54.350;18.532;2023-04-15T10:00:07;11.00;99.90
19732;DHT22;10017;54.350;18.532;2023-04-15T10:02:41;11.00;99.90
19732;DHT22;10017;54.350;18.532;2023-04-15T10:05:14;11.00;99.90
19732;DHT22;10017;54.350;18.532;2023-04-15T10:07:48;11.10;99.90
19732;DHT22;10017;54.350;18.532;2023-04-15T10:10:20;11.10;99.90
19732;DHT22;10017;54.350;18.532;2023-04-15T10:12:52;11.00;99.90
19732;DHT22;10017;54.350;18.532;2023-04-15T10:15:25;11.00;99.90
19732;DHT22;10017;54.350;18.532;2023-04-15T10:17:57;11.00;99.90
19732;DHT22;10017;54.350;18.532;2023-04-15T10:20:31;11.00;99.90
19732;DHT22;10017;54.350;18.532;2023-04-15T10:23:05;11.00;99.90
19732;DHT22;10017;54.350;18.532;2023-04-15T10:25:41;11.00;99.90
19732;DHT22;10017;54.350;18.532;2023-04-15T10:28:15;10.90;99.90
19732;DHT22;10017;54.350;18.532;2023-04-15T10:30:47;10.90;99.90
19732;DHT22;10017;54.350;18.532;2023-04-15T10:33:21;10.90;99.90
19732;DHT22;10017;54.350;18.532;2023-04-15T10:35:53;10.90;99.90
19732;DHT22;10017;54.350;18.532;2023-04-15T10:46:33;11.00;99.90
19732;DHT22;10017;54.350;18.532;2023-04-15T10:49:08;11.10;99.90
19732;DHT22;10017;54.350;18.532;2023-04-15T10:51:44;11.00;99.90
19732;DHT22;10017;54.350;18.532;2023-04-15T10:59:38;11.10;99.90
19732;DHT22;10017;54.350;18.532;2023-04-15T11:02:11;11.00;99.90
19732;DHT22;10017;54.350;18.532;2023-04-15T11:04:54;11.10;99.90
19732;DHT22;10017;54.350;18.532;2023-04-15T11:07:33;11.00;99.90
19732;DHT22;10017;54.350;18.532;2023-04-15T11:10:49;11.00;99.90
19732;DHT22;10017;54.350;18.532;2023-04-15T11:12:58;11.00;99.90
19732;DHT22;10017;54.350;18.532;2023-04-15T11:15:46;10.90;99.90
19732;DHT22;10017;54.350;18.532;2023-04-15T11:20:56;11.10;99.90
19732;DHT22;10017;54.350;18.532;2023-04-15T11:23:30;11.10;99.90
19732;DHT22;10017;54.350;18.532;2023-04-15T11:26:06;11.10;99.90
19732;DHT22;10017;54.350;18.532;2023-04-15T11:28:43;11.20;99.90
19732;DHT22;10017;54.350;18.532;2023-04-15T11:31:18;11.20;99.90
19732;DHT22;10017;54.350;18.532;2023-04-15T11:33:54;11.30;99.90
19732;DHT22;10017;54.350;18.532;2023-04-15T11:36:27;11.30;99.90
19732;DHT22;10017;54.350;18.532;2023-04-15T11:39:00;11.40;99.90
19732;DHT22;10017;54.350;18.532;2023-04-15T11:41:31;11.50;99.90
19732;DHT22;10017;54.350;18.532;2023-04-15T11:44:14;11.40;99.90
19732;DHT22;10017;54.350;18.532;2023-04-15T11:46:46;11.40;99.90
19732;DHT22;10017;54.350;18.532;2023-04-15T11:49:27;11.50;99.90
19732;DHT22;10017;54.350;18.532;2023-04-15T11:51:59;11.60;99.90
19732;DHT22;10017;54.350;18.532;2023-04-15T11:54:31;11.70;99.90
19732;DHT22;10017;54.350;18.532;2023-04-15T11:57:03;11.70;99.90
19732;DHT22;10017;54.350;18.532;2023-04-15T11:59:41;11.70;99.90
19732;DHT22;10017;54.350;18.532;2023-04-15T12:02:16;11.80;99.90
19732;DHT22;10017;54.350;18.532;2023-04-15T12:04:51;11.80;99.90
19732;DHT22;10017;54.350;18.532;2023-04-15T12:07:34;12.00;99.90
19732;DHT22;10017;54.350;18.532;2023-04-15T12:10:25;12.10;99.90
19732;DHT22;10017;54.350;18.532;2023-04-15T12:12:57;12.20;99.90
19732;DHT22;10017;54.350;18.532;2023-04-15T12:15:28;12.20;99.90
19732;DHT22;10017;54.350;18.532;2023-04-15T12:18:02;12.30;99.90
19732;DHT22;10017;54.350;18.532;2023-04-15T12:20:42;12.30;99.90
19732;DHT22;10017;54.350;18.532;2023-04-15T12:23:17;12.10;99.90
19732;DHT22;10017;54.350;18.532;2023-04-15T12:25:54;12.30;99.90
19732;DHT22;10017;54.350;18.532;2023-04-15T12:28:29;12.30;99.90
19732;DHT22;10017;54.350;18.532;2023-04-15T12:31:06;12.10;99.90
19732;DHT22;10017;54.350;18.532;2023-04-15T12:33:39;11.90;99.90
19732;DHT22;10017;54.350;18.532;2023-04-15T12:36:11;11.80;99.90
19732;DHT22;10017;54.350;18.532;2023-04-15T12:38:42;11.60;99.90
19732;DHT22;10017;54.350;18.532;2023-04-15T12:41:14;11.50;99.90
19732;DHT22;10017;54.350;18.532;2023-04-15T12:43:46;11.40;99.90
19732;DHT22;10017;54.350;18.532;2023-04-15T12:46:18;11.30;99.90
19732;DHT22;10017;54.350;18.532;2023-04-15T12:48:50;11.30;99.90
19732;DHT22;10017;54.350;18.532;2023-04-15T12:51:23;11.20;99.90
19732;DHT22;10017;54.350;18.532;2023-04-15T12:53:55;11.20;99.90
19732;DHT22;10017;54.350;18.532;2023-04-15T12:56:29;11.10;99.90
19732;DHT22;10017;54.350;18.532;2023-04-15T12:59:01;11.00;99.90
19732;DHT22;10017;54.350;18.532;2023-04-15T13:01:33;11.00;99.90
19732;DHT22;10017;54.350;18.532;2023-04-15T13:04:07;10.90;99.90
19732;DHT22;10017;54.350;18.532;2023-04-15T13:06:40;10.90;99.90
19732;DHT22;10017;54.350;18.532;2023-04-15T13:09:11;10.80;99.90
19732;DHT22;10017;54.350;18.532;2023-04-15T13:11:43;10.80;99.90
19732;DHT22;10017;54.350;18.532;2023-04-15T13:14:15;10.70;99.90
19732;DHT22;10017;54.350;18.532;2023-04-15T13:16:47;10.70;99.90
19732;DHT22;10017;54.350;18.532;2023-04-15T13:19:19;10.60;99.90
19732;DHT22;10017;54.350;18.532;2023-04-15T13:21:53;10.60;99.90
19732;DHT22;10017;54.350;18.532;2023-04-15T13:24:25;10.60;99.90
19732;DHT22;10017;54.350;18.532;2023-04-15T13:26:57;10.60;99.90
19732;DHT22;10017;54.350;18.532;2023-04-15T13:29:29;10.60;99.90
19732;DHT22;10017;54.350;18.532;2023-04-15T13:32:01;10.60;99.90
19732;DHT22;10017;54.350;18.532;2023-04-15T13:34:34;10.60;99.90
19732;DHT22;10017;54.350;18.532;2023-04-15T13:37:06;10.60;99.90
19732;DHT22;10017;54.350;18.532;2023-04-15T13:39:38;10.60;99.90
19732;DHT22;10017;54.350;18.532;2023-04-15T13:42:10;10.60;99.90
19732;DHT22;10017;54.350;18.532;2023-04-15T13:44:42;10.60;99.90
19732;DHT22;10017;54.350;18.532;2023-04-15T13:47:14;10.60;99.90
19732;DHT22;10017;54.350;18.532;2023-04-15T13:49:46;10.60;99.90
19732;DHT22;10017;54.350;18.532;2023-04-15T13:52:18;10.60;99.90
19732;DHT22;10017;54.350;18.532;2023-04-15T13:54:50;10.60;99.90
19732;DHT22;10017;54.350;18.532;2023-04-15T13:57:44;10.60;99.90
19732;DHT22;10017;54.350;18.532;2023-04-15T14:00:17;10.50;99.90
19732;DHT22;10017;54.350;18.532;2023-04-15T14:02:49;10.60;99.90
19732;DHT22;10017;54.350;18.532;2023-04-15T14:05:21;10.60;99.90
19732;DHT22;10017;54.350;18.532;2023-04-15T14:07:55;10.60;99.90
19732;DHT22;10017;54.350;18.532;2023-04-15T14:10:27;10.60;99.90
19732;DHT22;10017;54.350;18.532;2023-04-15T14:12:58;10.50;99.90
19732;DHT22;10017;54.350;18.532;2023-04-15T14:15:30;10.60;99.90
19732;DHT22;10017;54.350;18.532;2023-04-15T14:18:02;10.60;99.90
19732;DHT22;10017;54.350;18.532;2023-04-15T14:20:34;10.60;99.90
19732;DHT22;10017;54.350;18.532;2023-04-15T14:23:06;10.60;99.90
19732;DHT22;10017;54.350;18.532;2023-04-15T14:25:38;10.70;99.90
19732;DHT22;10017;54.350;18.532;2023-04-15T14:28:10;10.60;99.90
19732;DHT22;10017;54.350;18.532;2023-04-15T14:30:42;10.60;99.90
19732;DHT22;10017;54.350;18.532;2023-04-15T14:33:14;10.60;99.90
19732;DHT22;10017;54.350;18.532;2023-04-15T14:35:46;10.70;99.90
19732;DHT22;10017;54.350;18.532;2023-04-15T14:38:18;10.70;99.90
19732;DHT22;10017;54.350;18.532;2023-04-15T14:40:53;10.60;99.90
19732;DHT22;10017;54.350;18.532;2023-04-15T14:43:24;10.60;99.90
19732;DHT22;10017;54.350;18.532;2023-04-15T14:45:56;10.50;99.90
19732;DHT22;10017;54.350;18.532;2023-04-15T14:48:30;10.50;99.90
19732;DHT22;10017;54.350;18.532;2023-04-15T14:51:02;10.50;99.90
19732;DHT22;10017;54.350;18.532;2023-04-15T14:53:34;10.40;99.90
19732;DHT22;10017;54.350;18.532;2023-04-15T14:56:06;10.40;99.90
19732;DHT22;10017;54.350;18.532;2023-04-15T14:58:38;10.30;99.90
19732;DHT22;10017;54.350;18.532;2023-04-15T15:01:10;10.30;99.90
19732;DHT22;10017;54.350;18.532;2023-04-15T15:03:41;10.30;99.90
19732;DHT22;10017;54.350;18.532;2023-04-15T15:06:14;10.20;99.90
19732;DHT22;10017;54.350;18.532;2023-04-15T15:08:46;10.20;99.90
19732;DHT22;10017;54.350;18.532;2023-04-15T15:11:17;10.10;99.90
19732;DHT22;10017;54.350;18.532;2023-04-15T15:13:49;10.10;99.90
19732;DHT22;10017;54.350;18.532;2023-04-15T15:16:21;10.10;99.90
19732;DHT22;10017;54.350;18.532;2023-04-15T15:18:53;10.00;99.90
19732;DHT22;10017;54.350;18.532;2023-04-15T15:21:28;10.00;99.90
19732;DHT22;10017;54.350;18.532;2023-04-15T15:23:59;10.00;99.90
19732;DHT22;10017;54.350;18.532;2023-04-15T15:26:31;9.90;99.90
19732;DHT22;10017;54.350;18.532;2023-04-15T15:29:03;10.00;99.90
19732;DHT22;10017;54.350;18.532;2023-04-15T15:31:35;9.90;99.90
19732;DHT22;10017;54.350;18.532;2023-04-15T15:34:07;10.00;99.90
19732;DHT22;10017;54.350;18.532;2023-04-15T15:36:39;9.90;99.90
19732;DHT22;10017;54.350;18.532;2023-04-15T15:39:11;9.90;99.90
19732;DHT22;10017;54.350;18.532;2023-04-15T15:41:45;9.90;99.90
19732;DHT22;10017;54.350;18.532;2023-04-15T15:44:16;9.90;99.90
19732;DHT22;10017;54.350;18.532;2023-04-15T15:46:49;9.80;99.90
19732;DHT22;10017;54.350;18.532;2023-04-15T15:49:21;9.80;99.90
19732;DHT22;10017;54.350;18.532;2023-04-15T15:51:52;9.80;99.90
19732;DHT22;10017;54.350;18.532;2023-04-15T15:54:27;9.80;99.90
19732;DHT22;10017;54.350;18.532;2023-04-15T15:57:02;9.80;99.90
19732;DHT22;10017;54.350;18.532;2023-04-15T15:59:34;9.80;99.90
19732;DHT22;10017;54.350;18.532;2023-04-15T16:02:09;9.70;99.90
19732;DHT22;10017;54.350;18.532;2023-04-15T16:04:41;9.70;99.90
19732;DHT22;10017;54.350;18.532;2023-04-15T16:07:13;9.70;99.90
19732;DHT22;10017;54.350;18.532;2023-04-15T16:09:46;9.70;99.90
19732;DHT22;10017;54.350;18.532;2023-04-15T16:12:18;9.70;99.90
19732;DHT22;10017;54.350;18.532;2023-04-15T16:14:50;9.80;99.90
19732;DHT22;10017;54.350;18.532;2023-04-15T16:17:22;9.80;99.90
19732;DHT22;10017;54.350;18.532;2023-04-15T16:19:56;9.80;99.90
19732;DHT22;10017;54.350;18.532;2023-04-15T16:22:32;9.90;99.90